Time;durP1;ratioP1;P1;durP2;ratioP2;P2;SDS_P1;SDS_P2;PMS_P1;PMS_P2;Temp;Humidity;BMP_temperature;BMP_pressure;BME280_temperature;BME280_humidity;BME280_pressure;Samples;Min_cycle;Max_cycle;Signal;HPM_P1;HPM_P2
2024/03/13 00:11:42;;;;;;;52.20;24.10;;;;;;;7.65;99.96;100298.70;681854;1262;139214;-78
2024/03/13 00:26:50;;;;;;;58.40;24.90;;;;;;;7.66;99.98;100300.39;681895;1263;139856;-77
2024/03/13 00:41:54;;;;;;;;;;;;;;;7.63;99.89;100296.08;681731;1264;139452;-78
2024/03/13 00:56:57;;;;;;;55.40;26.10;;;;;;;7.47;99.78;100286.53;681800;1265;125841;-78
2024/03/13 01:12:05;;;;;;;54.90;25.20;;;;;;;7.45;99.78;100282.10;681832;1264;139194;-78
2024/03/13 01:27:10;;;;;;;57.30;26.30;;;;;;;7.45;99.85;100280.35;681822;1264;140486;-78
2024/03/13 02:13:10;;;;;;;67.50;29.30;;;;;;;7.62;100.00;100269.70;681873;1266;139078;-78
2024/03/13 02:28:17;;;;;;;73.00;29.10;;;;;;;7.60;99.82;100273.03;681916;1274;139537;-78
2024/03/13 02:43:21;;;;;;;63.70;27.20;;;;;;;7.54;99.99;100279.41;681838;1276;140445;-78
2024/03/13 02:58:24;;;;;;;63.40;24.50;;;;;;;7.50;99.93;100295.30;681608;1262;139071;-78
2024/03/13 03:13:28;;;;;;;81.40;30.20;;;;;;;7.55;100.00;100296.57;681749;1274;139130;-78
2024/03/13 03:28:32;;;;;;;77.00;30.20;;;;;;;7.50;100.00;100300.59;681492;1266;139836;-79
2024/03/13 03:43:35;;;;;;;82.90;32.40;;;;;;;7.49;100.00;100302.17;681916;1266;138896;-78
2024/03/13 03:58:38;;;;;;;82.20;33.70;;;;;;;7.58;100.00;100310.55;681787;1275;141813;-78
2024/03/13 04:13:42;;;;;;;89.70;32.50;;;;;;;7.56;100.00;100320.16;681881;1276;139775;-78
2024/03/13 04:28:46;;;;;;;95.80;35.80;;;;;;;7.48;100.00;100326.43;681633;1264;140155;-79
2024/03/13 04:43:50;;;;;;;88.00;29.40;;;;;;;7.49;100.00;100330.20;681853;1261;139524;-78
2024/03/13 04:58:53;;;;;;;98.20;33.50;;;;;;;7.41;100.00;100337.60;681674;1263;139807;-78
2024/03/13 05:14:01;;;;;;;113.40;38.10;;;;;;;7.30;100.00;100338.19;681824;1264;139838;-78
2024/03/13 05:29:08;;;;;;;94.50;34.50;;;;;;;7.33;100.00;100337.79;681730;1261;139140;-78
2024/03/13 05:44:12;;;;;;;87.10;32.70;;;;;;;7.49;100.00;100350.42;681802;1274;141002;-79
2024/03/13 05:59:16;;;;;;;89.70;33.00;;;;;;;7.69;100.00;100351.38;681685;1263;139502;-79
2024/03/13 06:14:19;;;;;;;101.60;40.40;;;;;;;7.74;100.00;100364.71;681864;1261;139318;-79
2024/03/13 06:44:49;;;;;;;96.80;37.40;;;;;;;7.75;100.00;100382.21;682166;1261;138901;-80
2024/03/13 06:59:57;;;;;;;114.90;39.30;;;;;;;7.80;100.00;100387.97;682196;1260;140420;-80
2024/03/13 07:15:03;;;;;;;100.00;44.30;;;;;;;7.81;100.00;100396.56;682036;1263;140627;-78
2024/03/13 07:30:07;;;;;;;115.50;42.40;;;;;;;7.95;100.00;100404.92;682177;1260;139706;-80
2024/03/13 07:45:21;;;;;;;105.00;42.00;;;;;;;8.11;100.00;100405.30;682126;1260;140322;-80
2024/03/13 08:00:29;;;;;;;116.00;43.30;;;;;;;8.22;100.00;100413.39;682092;1263;140095;-79
2024/03/13 08:15:33;;;;;;;117.70;41.00;;;;;;;8.33;100.00;100418.00;681890;1260;171768;-79
2024/03/13 08:30:54;;;;;;;117.50;43.50;;;;;;;8.51;100.00;100425.39;682118;1261;139660;-79
2024/03/13 08:46:16;;;;;;;200.60;71.90;;;;;;;8.79;100.00;100430.98;681842;1264;141978;-80
2024/03/13 09:01:45;;;;;;;106.00;41.40;;;;;;;9.27;100.00;100442.45;681870;1267;139653;-79
2024/03/13 09:17:06;;;;;;;117.70;45.90;;;;;;;9.31;100.00;100453.98;681835;1262;140061;-80
2024/03/13 09:32:12;;;;;;;202.00;75.40;;;;;;;9.54;100.00;100459.30;682028;1269;139821;-79
2024/03/13 09:47:16;;;;;;;146.50;59.10;;;;;;;9.40;100.00;100472.08;681971;1262;140024;-81
2024/03/13 10:02:21;;;;;;;153.70;55.10;;;;;;;9.39;100.00;100488.76;681944;1264;139118;-80
2024/03/13 10:17:29;;;;;;;126.70;51.00;;;;;;;9.49;100.00;100495.12;681849;1264;139708;-80
2024/03/13 10:32:32;;;;;;;134.20;50.50;;;;;;;9.91;100.00;100497.20;682054;1265;139874;-81
2024/03/13 10:47:36;;;;;;;97.90;42.00;;;;;;;10.30;100.00;100492.41;681800;1261;139338;-80
2024/03/13 11:02:40;;;;;;;83.70;36.50;;;;;;;10.39;100.00;100497.64;681994;1261;139938;-80
2024/03/13 11:17:49;;;;;;;79.80;36.50;;;;;;;10.76;100.00;100485.42;681807;1261;138862;-81
2024/03/13 11:32:55;;;;;;;65.90;28.70;;;;;;;12.78;100.00;100465.20;681852;1265;139073;-81
2024/03/13 11:48:01;;;;;;;66.30;31.80;;;;;;;14.61;95.23;100457.83;682109;1263;139444;-81
2024/03/13 12:03:05;;;;;;;72.20;37.30;;;;;;;16.06;90.43;100449.79;681941;1262;139983;-80
2024/03/13 12:18:25;;;;;;;50.50;27.40;;;;;;;16.74;82.78;100446.16;682029;1262;139851;-81
2024/03/13 12:33:29;;;;;;;102.90;46.30;;;;;;;16.33;79.50;100447.86;681852;1265;139924;-81
2024/03/13 12:48:33;;;;;;;61.00;31.30;;;;;;;15.10;77.26;100451.80;682032;1262;139199;-82
2024/03/13 13:03:37;;;;;;;50.70;25.70;;;;;;;15.57;76.03;100451.09;681895;1262;139259;-80
2024/03/13 13:18:46;;;;;;;54.50;24.90;;;;;;;15.12;74.32;100459.98;682003;1262;139729;-80
2024/03/13 13:33:49;;;;;;;52.00;26.70;;;;;;;15.24;75.23;100457.54;681932;1265;139171;-80
2024/03/13 13:48:54;;;;;;;56.80;26.10;;;;;;;15.68;74.38;100456.80;682110;1265;139948;-81
2024/03/13 14:03:57;;;;;;;66.80;27.20;;;;;;;15.22;73.54;100459.70;681639;1261;139140;-82
2024/03/13 14:19:02;;;;;;;92.30;44.80;;;;;;;15.15;73.57;100453.14;681834;1264;139672;-82
2024/03/13 14:34:07;;;;;;;65.30;31.60;;;;;;;15.07;73.72;100457.31;681895;1265;139311;-83
2024/03/13 14:49:13;;;;;;;66.80;30.80;;;;;;;14.84;74.01;100458.82;681995;1261;139548;-81
2024/03/13 15:04:17;;;;;;;60.10;27.50;;;;;;;14.44;73.51;100449.91;681851;1265;139737;-80
2024/03/13 15:19:20;;;;;;;53.80;26.70;;;;;;;14.06;73.39;100456.44;681905;1265;139628;-79
2024/03/13 15:34:24;;;;;;;69.50;28.70;;;;;;;13.64;73.89;100454.80;682044;1265;139576;-80
2024/03/13 15:49:28;;;;;;;156.30;83.30;;;;;;;13.37;74.73;100463.98;681966;1265;139544;-79
2024/03/13 16:04:32;;;;;;;106.00;47.40;;;;;;;13.21;75.39;100465.31;681805;1265;139377;-79
2024/03/13 16:19:36;;;;;;;92.40;42.60;;;;;;;12.97;76.25;100463.86;681943;1267;139234;-80
2024/03/13 16:34:43;;;;;;;102.00;49.10;;;;;;;12.69;76.94;100471.96;681827;1263;139144;-80
2024/03/13 16:49:46;;;;;;;206.00;83.10;;;;;;;12.13;77.89;100477.23;682043;1265;139130;-79
2024/03/13 17:04:50;;;;;;;167.80;70.20;;;;;;;11.27;79.73;100495.05;681697;1265;139602;-80
2024/03/13 17:19:55;;;;;;;219.30;78.90;;;;;;;10.65;82.06;100514.51;681937;1265;139640;-80
2024/03/13 17:34:58;;;;;;;198.20;83.20;;;;;;;10.02;85.13;100509.92;681803;1265;139139;-80
2024/03/13 17:50:05;;;;;;;106.70;47.60;;;;;;;9.69;87.22;100513.79;681949;1265;139422;-81
2024/03/13 18:05:10;;;;;;;80.00;36.70;;;;;;;9.40;88.39;100520.98;681580;1263;139669;-80
2024/03/13 18:20:14;;;;;;;127.40;55.00;;;;;;;9.25;89.43;100524.77;681802;1272;139762;-81
2024/03/13 18:35:18;;;;;;;142.00;57.70;;;;;;;9.09;90.41;100531.26;681820;1266;139059;-80
2024/03/13 18:50:22;;;;;;;87.40;37.20;;;;;;;8.79;92.45;100536.34;681853;1265;138855;-82
2024/03/13 19:05:26;;;;;;;76.60;32.30;;;;;;;8.42;94.80;100546.99;681712;1266;138994;-80
2024/03/13 19:20:30;;;;;;;92.70;38.40;;;;;;;7.98;99.40;100552.63;681726;1276;138917;-81
2024/03/13 19:35:34;;;;;;;81.80;35.00;;;;;;;7.98;99.84;100561.64;681931;1265;139722;-80
2024/03/13 19:50:39;;;;;;;89.70;40.20;;;;;;;7.87;99.81;100565.61;681873;1261;139234;-79
2024/03/13 20:05:42;;;;;;;253.10;106.30;;;;;;;7.57;99.95;100579.73;681890;1264;138840;-80
2024/03/13 20:20:46;;;;;;;158.40;65.50;;;;;;;7.55;99.86;100580.19;681786;1266;181437;-80
2024/03/13 20:35:51;;;;;;;122.40;51.10;;;;;;;7.67;100.00;100573.64;682053;1266;139534;-80
2024/03/13 20:50:56;;;;;;;109.50;45.30;;;;;;;7.76;100.00;100571.40;681972;1261;139200;-79
2024/03/13 21:06:00;;;;;;;193.00;77.50;;;;;;;7.80;100.00;100570.92;681926;1266;139803;-80
2024/03/13 21:21:05;;;;;;;98.70;42.20;;;;;;;7.87;100.00;100569.95;681574;1266;139272;-80
2024/03/13 21:36:08;;;;;;;105.50;43.10;;;;;;;7.88;100.00;100562.59;681819;1263;139244;-80
2024/03/13 21:51:15;;;;;;;84.10;33.50;;;;;;;7.90;100.00;100569.02;681587;1264;139416;-80
2024/03/13 22:06:19;;;;;;;75.70;31.80;;;;;;;7.97;100.00;100572.33;681803;1265;139193;-80
2024/03/13 22:21:23;;;;;;;71.20;30.00;;;;;;;7.92;100.00;100563.69;681769;1264;139803;-80
2024/03/13 22:36:26;;;;;;;70.70;30.30;;;;;;;7.91;100.00;100562.86;681685;1263;138685;-80
2024/03/13 22:51:32;;;;;;;64.20;29.10;;;;;;;7.94;100.00;100559.01;681764;1264;141047;-80
2024/03/13 23:06:35;;;;;;;70.60;29.50;;;;;;;8.02;100.00;100560.67;681814;1262;138850;-80
2024/03/13 23:21:39;;;;;;;63.40;27.40;;;;;;;8.03;100.00;100557.13;681695;1261;141527;-80
2024/03/13 23:36:42;;;;;;;63.50;30.30;;;;;;;8.05;100.00;100552.81;681958;1262;139414;-80
2024/03/13 23:51:45;;;;;;;68.60;31.00;;;;;;;7.90;100.00;100534.19;681691;1262;139284;-81
